createdAt,value
2018-08-16T00:01:13.376Z,98251.00
2018-08-16T00:05:15.906Z,98247.00
2018-08-16T00:09:18.251Z,98251.00
2018-08-16T00:13:20.527Z,98252.00
2018-08-16T00:17:22.722Z,98250.00
2018-08-16T00:21:24.917Z,98243.00
2018-08-16T00:25:27.105Z,98237.00
2018-08-16T00:29:29.307Z,98230.00
2018-08-16T00:33:31.538Z,98235.00
2018-08-16T00:37:33.752Z,98232.00
2018-08-16T00:41:35.919Z,98233.00
2018-08-16T00:45:38.091Z,98228.00
2018-08-16T00:49:40.283Z,98221.00
2018-08-16T00:53:42.441Z,98226.00
2018-08-16T00:57:44.687Z,98218.00
2018-08-16T01:01:46.909Z,98218.00
2018-08-16T01:05:49.078Z,98213.00
2018-08-16T01:09:51.268Z,98213.00
2018-08-16T01:13:53.470Z,98215.00
2018-08-16T01:17:55.680Z,98210.00
2018-08-16T01:21:57.870Z,98204.00
2018-08-16T01:26:00.043Z,98199.00
2018-08-16T01:30:02.273Z,98201.00
2018-08-16T01:34:04.496Z,98202.00
2018-08-16T01:38:06.670Z,98204.00
2018-08-16T01:42:08.878Z,98207.00
2018-08-16T01:46:11.366Z,98204.00
2018-08-16T01:50:13.563Z,98197.00
2018-08-16T01:54:15.779Z,98198.00
2018-08-16T01:58:17.967Z,98194.00
2018-08-16T02:02:20.203Z,98199.00
2018-08-16T02:06:22.371Z,98189.00
2018-08-16T02:10:24.840Z,98198.00
2018-08-16T02:14:27.014Z,98188.00
2018-08-16T02:18:29.248Z,98182.00
2018-08-16T02:22:31.461Z,98190.00
2018-08-16T02:26:33.687Z,98185.00
2018-08-16T02:30:35.920Z,98181.00
2018-08-16T02:34:38.737Z,98179.00
2018-08-16T02:38:41.026Z,98175.00
2018-08-16T02:42:43.228Z,98170.00
2018-08-16T02:46:45.380Z,98168.00
2018-08-16T02:50:47.546Z,98165.00
2018-08-16T02:54:49.707Z,98160.00
2018-08-16T02:58:51.861Z,98156.00
2018-08-16T03:02:54.015Z,98160.00
2018-08-16T03:06:56.182Z,98160.00
2018-08-16T03:10:58.351Z,98161.00
2018-08-16T03:15:00.491Z,98159.00
2018-08-16T03:19:02.743Z,98159.00
2018-08-16T03:23:04.995Z,98157.00
2018-08-16T03:27:07.180Z,98154.00
2018-08-16T03:31:09.369Z,98145.00
2018-08-16T03:35:11.572Z,98144.00
2018-08-16T03:39:13.733Z,98145.00
2018-08-16T03:43:15.878Z,98140.00
2018-08-16T03:47:18.024Z,98128.00
2018-08-16T03:51:20.213Z,98131.00
2018-08-16T03:55:22.455Z,98127.00
2018-08-16T03:59:24.555Z,98128.00
2018-08-16T04:03:26.706Z,98130.00
2018-08-16T04:07:29.055Z,98137.00
2018-08-16T04:11:31.207Z,98129.00
2018-08-16T04:15:33.372Z,98124.00
2018-08-16T04:19:36.882Z,98124.00
2018-08-16T04:23:39.048Z,98132.00
2018-08-16T04:27:41.238Z,98132.00
2018-08-16T04:31:43.443Z,98123.00
2018-08-16T04:35:45.599Z,98125.00
2018-08-16T04:39:47.759Z,98129.00
2018-08-16T04:43:49.903Z,98129.00
2018-08-16T04:47:52.095Z,98117.00
2018-08-16T04:51:54.246Z,98121.00
2018-08-16T04:55:56.415Z,98121.00
2018-08-16T04:59:58.581Z,98116.00
2018-08-16T05:04:01.448Z,98108.00
2018-08-16T05:08:03.731Z,98110.00
2018-08-16T05:12:05.936Z,98109.00
2018-08-16T05:16:09.058Z,98112.00
2018-08-16T05:20:12.722Z,98111.00
2018-08-16T05:24:14.854Z,98127.00
2018-08-16T05:28:17.026Z,98127.00
2018-08-16T05:32:19.236Z,98123.00
2018-08-16T05:36:21.413Z,98124.00
2018-08-16T05:40:23.616Z,98130.00
2018-08-16T05:44:26.866Z,98123.00
2018-08-16T05:48:29.256Z,98120.00
2018-08-16T05:52:31.496Z,98119.00
2018-08-16T05:56:33.693Z,98113.00
2018-08-16T06:00:36.693Z,98116.00
2018-08-16T06:04:39.848Z,98114.00
2018-08-16T06:08:42.046Z,98109.00
2018-08-16T06:12:44.225Z,98118.00
2018-08-16T06:16:46.512Z,98111.00
2018-08-16T06:20:49.343Z,98114.00
2018-08-16T06:24:51.503Z,98108.00
2018-08-16T06:28:53.746Z,98100.00
2018-08-16T06:32:56.930Z,98097.00
2018-08-16T06:37:00.079Z,98094.00
2018-08-16T06:41:02.244Z,98093.00
2018-08-16T06:45:07.142Z,98087.00
2018-08-16T06:49:10.508Z,98089.00
2018-08-16T06:53:12.748Z,98096.00
2018-08-16T06:57:14.953Z,98091.00
2018-08-16T07:01:17.376Z,98093.00
2018-08-16T07:05:19.639Z,98093.00
2018-08-16T07:09:21.841Z,98095.00
2018-08-16T07:13:24.071Z,98089.00
2018-08-16T07:17:26.281Z,98085.00
2018-08-16T07:21:28.426Z,98086.00
2018-08-16T07:25:31.351Z,98082.00
2018-08-16T07:29:33.652Z,98077.00
2018-08-16T07:33:35.930Z,98078.00
2018-08-16T07:37:40.325Z,98086.00
2018-08-16T07:41:43.507Z,98085.00
2018-08-16T07:45:45.847Z,98083.00
2018-08-16T07:49:47.960Z,98084.00
2018-08-16T07:53:50.960Z,98080.00
2018-08-16T07:57:53.846Z,98075.00
2018-08-16T08:01:56.211Z,98077.00
2018-08-16T08:05:59.212Z,98076.00
2018-08-16T08:10:01.503Z,98073.00
2018-08-16T08:14:03.904Z,98070.00
2018-08-16T08:18:06.247Z,98068.00
2018-08-16T08:22:08.503Z,98073.00
2018-08-16T08:26:11.595Z,98071.00
2018-08-16T08:30:15.749Z,98066.00
2018-08-16T08:34:17.960Z,98066.00
2018-08-16T08:38:20.493Z,98063.00
2018-08-16T08:42:22.758Z,98068.00
2018-08-16T08:46:24.912Z,98063.00
2018-08-16T08:50:27.248Z,98057.00
2018-08-16T08:54:43.123Z,98061.00
2018-08-16T08:58:49.243Z,98056.00
2018-08-16T09:02:51.497Z,98061.00
2018-08-16T09:06:54.512Z,98053.00
2018-08-16T09:11:10.668Z,98055.00
2018-08-16T09:15:49.599Z,98049.00
2018-08-16T09:19:52.602Z,98045.00
2018-08-16T09:23:55.967Z,98053.00
2018-08-16T09:27:58.092Z,98051.00
2018-08-16T09:33:13.342Z,98038.00
2018-08-16T09:37:20.706Z,98048.00
2018-08-16T09:41:23.000Z,98039.00
2018-08-16T09:45:37.070Z,98032.00
2018-08-16T09:49:56.126Z,98024.00
2018-08-16T09:53:58.330Z,98032.00
2018-08-16T09:58:00.938Z,98025.00
2018-08-16T10:02:04.105Z,98024.00
2018-08-16T10:06:06.298Z,98017.00
2018-08-16T10:10:08.495Z,98026.00
2018-08-16T10:14:10.752Z,98021.00
2018-08-16T10:18:12.911Z,98023.00
2018-08-16T10:22:15.108Z,98012.00
2018-08-16T10:26:17.962Z,98010.00
2018-08-16T10:30:21.581Z,98018.00
2018-08-16T10:34:24.419Z,98007.00
2018-08-16T10:38:26.887Z,97997.00
2018-08-16T10:42:29.950Z,97993.00
2018-08-16T10:46:33.664Z,97985.00
2018-08-16T10:50:36.085Z,97986.00
2018-08-16T10:54:38.967Z,97981.00
2018-08-16T10:58:42.672Z,97987.00
2018-08-16T11:02:45.846Z,97976.00
2018-08-16T11:06:48.100Z,97987.00
2018-08-16T11:10:50.296Z,97978.00
2018-08-16T11:14:52.512Z,97977.00
2018-08-16T11:18:54.756Z,97969.00
2018-08-16T11:22:58.070Z,97970.00
2018-08-16T11:27:00.358Z,97966.00
2018-08-16T11:31:02.553Z,97963.00
2018-08-16T11:35:05.391Z,97965.00
2018-08-16T11:39:07.990Z,97960.00
2018-08-16T11:43:10.160Z,97957.00
2018-08-16T11:47:12.809Z,97956.00
2018-08-16T11:51:15.058Z,97953.00
2018-08-16T11:55:17.514Z,97944.00
2018-08-16T11:59:20.628Z,97948.00
2018-08-16T12:03:22.863Z,97946.00
2018-08-16T12:07:25.008Z,97929.00
2018-08-16T12:11:27.174Z,97933.00
2018-08-16T12:15:29.745Z,97932.00
2018-08-16T12:19:32.142Z,97927.00
2018-08-16T12:23:34.406Z,97932.00
2018-08-16T12:27:37.117Z,97927.00
2018-08-16T12:31:39.373Z,97917.00
2018-08-16T12:35:41.593Z,97917.00
2018-08-16T12:39:43.943Z,97918.00
2018-08-16T12:43:46.147Z,97920.00
2018-08-16T12:47:48.458Z,97917.00
2018-08-16T12:51:50.641Z,97908.00
2018-08-16T12:55:52.816Z,97913.00
2018-08-16T12:59:55.008Z,97911.00
2018-08-16T13:03:57.277Z,97895.00
2018-08-16T13:07:59.631Z,97893.00
2018-08-16T13:12:01.864Z,97889.00
2018-08-16T13:16:04.163Z,97896.00
2018-08-16T13:20:07.167Z,97890.00
2018-08-16T13:24:09.444Z,97887.00
2018-08-16T13:28:11.848Z,97883.00
2018-08-16T13:32:14.914Z,97875.00
2018-08-16T13:36:18.394Z,97883.00
2018-08-16T13:40:20.597Z,97880.00
2018-08-16T13:44:22.841Z,97882.00
2018-08-16T13:48:25.037Z,97877.00
2018-08-16T13:52:27.221Z,97877.00
2018-08-16T13:56:29.515Z,97869.00
2018-08-16T14:00:31.726Z,97867.00
2018-08-16T14:04:33.972Z,97858.00
2018-08-16T14:08:36.140Z,97863.00
2018-08-16T14:12:38.354Z,97859.00
2018-08-16T14:16:40.649Z,97846.00
2018-08-16T14:20:42.921Z,97841.00
2018-08-16T14:24:45.158Z,97847.00
2018-08-16T14:28:47.339Z,97842.00
2018-08-16T14:32:49.519Z,97835.00
2018-08-16T14:36:51.766Z,97843.00
2018-08-16T14:40:53.919Z,97834.00
2018-08-16T14:44:56.084Z,97824.00
2018-08-16T14:48:58.269Z,97832.00
2018-08-16T14:53:00.559Z,97838.00
2018-08-16T14:57:02.792Z,97831.00
2018-08-16T15:01:05.073Z,97821.00
2018-08-16T15:05:07.709Z,97815.00
2018-08-16T15:09:10.995Z,97815.00
2018-08-16T15:13:13.235Z,97817.00
2018-08-16T15:17:15.434Z,97806.00
2018-08-16T15:21:17.703Z,97801.00
2018-08-16T15:25:19.933Z,97814.00
2018-08-16T15:29:22.111Z,97812.00
2018-08-16T15:33:24.339Z,97813.00
2018-08-16T15:37:26.526Z,97803.00
2018-08-16T15:41:29.193Z,97798.00
2018-08-16T15:45:31.344Z,97798.00
2018-08-16T15:49:33.547Z,97788.00
2018-08-16T15:53:36.229Z,97784.00
2018-08-16T15:57:38.882Z,97784.00
2018-08-16T16:01:41.179Z,97774.00
2018-08-16T16:05:43.521Z,97780.00
2018-08-16T16:09:45.950Z,97775.00
2018-08-16T16:13:48.156Z,97778.00
2018-08-16T16:17:50.776Z,97777.00
2018-08-16T16:21:53.008Z,97771.00
2018-08-16T16:25:55.204Z,97773.00
2018-08-16T16:29:57.403Z,97758.00
2018-08-16T16:34:00.496Z,97761.00
2018-08-16T16:38:03.033Z,97760.00
2018-08-16T16:42:05.897Z,97752.00
2018-08-16T16:46:08.212Z,97749.00
2018-08-16T16:50:10.807Z,97751.00
2018-08-16T16:54:13.023Z,97747.00
2018-08-16T16:58:15.225Z,97752.00
2018-08-16T17:02:17.442Z,97743.00
2018-08-16T17:06:19.763Z,97746.00
2018-08-16T17:10:21.947Z,97740.00
2018-08-16T17:14:24.215Z,97749.00
2018-08-16T17:18:26.411Z,97748.00
2018-08-16T17:22:28.599Z,97750.00
2018-08-16T17:26:30.901Z,97745.00
2018-08-16T17:30:33.068Z,97744.00
2018-08-16T17:34:35.378Z,97750.00
2018-08-16T17:38:37.575Z,97747.00
2018-08-16T17:42:39.762Z,97738.00
2018-08-16T17:46:41.984Z,97734.00
2018-08-16T17:50:44.160Z,97736.00
2018-08-16T17:54:47.521Z,97736.00
2018-08-16T17:58:49.716Z,97734.00
2018-08-16T18:02:51.926Z,97716.00
2018-08-16T18:06:54.149Z,97731.00
2018-08-16T18:10:57.260Z,97728.00
2018-08-16T18:14:59.439Z,97728.00
2018-08-16T18:19:01.768Z,97734.00
2018-08-16T18:23:04.044Z,97736.00
2018-08-16T18:27:06.420Z,97726.00
2018-08-16T18:31:08.609Z,97725.00
2018-08-16T18:35:10.980Z,97724.00
2018-08-16T18:39:13.317Z,97730.00
2018-08-16T18:43:15.787Z,97734.00
2018-08-16T18:47:18.058Z,97732.00
2018-08-16T18:51:20.276Z,97735.00
2018-08-16T18:55:22.558Z,97733.00
2018-08-16T18:59:27.180Z,97735.00
2018-08-16T19:03:30.055Z,97735.00
2018-08-16T19:07:32.343Z,97741.00
2018-08-16T19:11:34.518Z,97743.00
2018-08-16T19:15:36.779Z,97747.00
2018-08-16T19:19:39.014Z,97748.00
2018-08-16T19:23:41.626Z,97751.00
2018-08-16T19:27:44.040Z,97762.00
2018-08-16T19:31:46.316Z,97760.00
2018-08-16T19:35:49.596Z,97756.00
2018-08-16T19:39:51.752Z,97759.00
2018-08-16T19:43:54.032Z,97754.00
2018-08-16T19:47:56.409Z,97746.00
2018-08-16T19:51:58.685Z,97745.00
2018-08-16T19:56:01.712Z,97747.00
2018-08-16T20:00:06.196Z,97742.00
2018-08-16T20:04:08.490Z,97748.00
2018-08-16T20:08:10.688Z,97751.00
2018-08-16T20:12:12.900Z,97748.00
2018-08-16T20:16:15.463Z,97748.00
2018-08-16T20:20:17.695Z,97744.00
2018-08-16T20:24:20.015Z,97750.00
2018-08-16T20:28:22.241Z,97751.00
2018-08-16T20:32:24.511Z,97748.00
2018-08-16T20:36:26.787Z,97745.00
2018-08-16T20:40:29.047Z,97743.00
2018-08-16T20:44:31.312Z,97745.00
2018-08-16T20:48:33.553Z,97745.00
2018-08-16T20:52:36.051Z,97743.00
2018-08-16T20:56:38.312Z,97748.00
2018-08-16T21:00:41.309Z,97748.00
2018-08-16T21:04:43.531Z,97745.00
2018-08-16T21:08:46.021Z,97742.00
2018-08-16T21:12:48.187Z,97737.00
2018-08-16T21:16:50.376Z,97731.00
2018-08-16T21:20:52.619Z,97740.00
2018-08-16T21:24:54.830Z,97742.00
2018-08-16T21:28:57.040Z,97739.00
2018-08-16T21:32:59.233Z,97741.00
2018-08-16T21:37:01.426Z,97754.00
2018-08-16T21:41:04.159Z,97747.00
2018-08-16T21:45:06.376Z,97748.00
2018-08-16T21:49:08.615Z,97740.00
2018-08-16T21:53:10.787Z,97745.00
2018-08-16T21:57:12.996Z,97754.00
2018-08-16T22:01:15.274Z,97746.00
2018-08-16T22:05:17.567Z,97746.00
2018-08-16T22:09:19.840Z,97742.00
2018-08-16T22:13:22.092Z,97736.00
2018-08-16T22:17:24.247Z,97739.00
2018-08-16T22:21:26.483Z,97741.00
2018-08-16T22:25:28.816Z,97736.00
2018-08-16T22:29:30.995Z,97727.00
2018-08-16T22:33:33.215Z,97736.00
2018-08-16T22:37:35.359Z,97733.00
2018-08-16T22:41:37.632Z,97735.00
2018-08-16T22:45:39.921Z,97735.00
2018-08-16T22:49:42.127Z,97734.00
2018-08-16T22:53:44.322Z,97735.00
2018-08-16T22:57:46.529Z,97740.00
2018-08-16T23:01:48.695Z,97733.00
2018-08-16T23:05:50.889Z,97740.00
2018-08-16T23:09:53.106Z,97729.00
2018-08-16T23:13:55.277Z,97732.00
2018-08-16T23:17:57.439Z,97729.00
2018-08-16T23:22:00.306Z,97730.00
2018-08-16T23:26:02.515Z,97720.00
2018-08-16T23:30:07.828Z,97721.00
2018-08-16T23:34:09.989Z,97721.00
2018-08-16T23:38:12.183Z,97722.00
2018-08-16T23:42:14.413Z,97713.00
2018-08-16T23:46:16.603Z,97720.00
2018-08-16T23:50:18.809Z,97714.00
2018-08-16T23:54:20.997Z,97709.00
2018-08-16T23:58:23.211Z,97709.00
